createdAt,value
2018-05-07T00:00:53.540Z,970.98
2018-05-07T00:01:53.584Z,971.01
2018-05-07T00:02:53.634Z,970.98
2018-05-07T00:03:53.721Z,971.01
2018-05-07T00:04:53.734Z,971.01
2018-05-07T00:05:53.810Z,971.04
2018-05-07T00:06:53.832Z,971.02
2018-05-07T00:07:53.883Z,971.04
2018-05-07T00:08:53.962Z,971.00
2018-05-07T00:09:53.980Z,971.05
2018-05-07T00:10:54.031Z,971.01
2018-05-07T00:11:54.111Z,971.02
2018-05-07T00:12:54.133Z,970.97
2018-05-07T00:13:54.213Z,970.94
2018-05-07T00:14:54.228Z,970.87
2018-05-07T00:15:54.280Z,970.81
2018-05-07T00:16:54.330Z,970.81
2018-05-07T00:17:54.379Z,970.80
2018-05-07T00:18:54.466Z,970.77
2018-05-07T00:19:54.472Z,970.75
2018-05-07T00:20:54.523Z,970.73
2018-05-07T00:21:54.572Z,970.72
2018-05-07T00:22:54.622Z,970.77
2018-05-07T00:23:55.271Z,970.76
2018-05-07T00:24:54.720Z,970.78
2018-05-07T00:25:54.767Z,970.83
2018-05-07T00:26:54.818Z,970.82
2018-05-07T00:27:54.867Z,970.81
2018-05-07T00:28:54.940Z,970.80
2018-05-07T00:29:54.964Z,970.80
2018-05-07T00:30:55.014Z,970.84
2018-05-07T00:31:55.065Z,970.77
2018-05-07T00:32:55.140Z,970.74
2018-05-07T00:33:55.162Z,970.76
2018-05-07T00:34:55.251Z,970.77
2018-05-07T00:35:55.274Z,970.80
2018-05-07T00:36:55.309Z,970.78
2018-05-07T00:37:55.382Z,970.79
2018-05-07T00:38:55.411Z,970.74
2018-05-07T00:39:55.456Z,970.76
2018-05-07T00:40:55.506Z,970.72
2018-05-07T00:41:55.554Z,970.72
2018-05-07T00:42:55.627Z,970.70
2018-05-07T00:43:55.653Z,970.71
2018-05-07T00:44:55.724Z,970.71
2018-05-07T00:45:55.748Z,970.71
2018-05-07T00:46:55.799Z,970.70
2018-05-07T00:47:55.848Z,970.74
2018-05-07T00:48:55.921Z,970.70
2018-05-07T00:49:55.969Z,970.70
2018-05-07T00:50:55.994Z,970.73
2018-05-07T00:51:56.052Z,970.74
2018-05-07T00:52:56.096Z,970.75
2018-05-07T00:53:56.167Z,970.74
2018-05-07T00:54:56.197Z,970.71
2018-05-07T00:55:56.239Z,970.76
2018-05-07T00:56:56.292Z,970.76
2018-05-07T00:57:56.343Z,970.72
2018-05-07T00:58:56.415Z,970.70
2018-05-07T00:59:56.435Z,970.69
2018-05-07T01:00:56.485Z,970.72
2018-05-07T01:01:56.534Z,970.71
2018-05-07T01:02:56.581Z,970.69
2018-05-07T01:03:56.681Z,970.69
2018-05-07T01:04:56.682Z,970.69
2018-05-07T01:05:56.729Z,970.68
2018-05-07T01:06:56.777Z,970.66
2018-05-07T01:07:56.825Z,970.68
2018-05-07T01:08:56.896Z,970.70
2018-05-07T01:09:56.921Z,970.69
2018-05-07T01:10:56.999Z,970.67
2018-05-07T01:11:57.023Z,970.66
2018-05-07T01:12:57.073Z,970.69
2018-05-07T01:13:57.119Z,970.65
2018-05-07T01:14:57.166Z,970.68
2018-05-07T01:15:57.238Z,970.69
2018-05-07T01:16:57.266Z,970.69
2018-05-07T01:17:57.313Z,970.67
2018-05-07T01:18:57.361Z,970.70
2018-05-07T01:19:57.409Z,970.74
2018-05-07T01:20:57.483Z,970.70
2018-05-07T01:21:57.507Z,970.75
2018-05-07T01:22:57.563Z,970.73
2018-05-07T01:23:57.603Z,970.73
2018-05-07T01:24:57.652Z,970.72
2018-05-07T01:25:57.731Z,970.70
2018-05-07T01:26:57.750Z,970.74
2018-05-07T01:27:57.798Z,970.73
2018-05-07T01:28:57.848Z,970.76
2018-05-07T01:29:57.898Z,970.67
2018-05-07T01:30:57.975Z,970.73
2018-05-07T01:31:57.994Z,970.72
2018-05-07T01:32:58.045Z,970.70
2018-05-07T01:33:58.089Z,970.72
2018-05-07T01:34:58.140Z,970.72
2018-05-07T01:35:58.211Z,970.70
2018-05-07T01:36:58.273Z,970.73
2018-05-07T01:37:58.286Z,970.73
2018-05-07T01:38:58.339Z,970.72
2018-05-07T01:39:58.386Z,970.72
2018-05-07T01:40:58.430Z,970.68
2018-05-07T01:41:58.510Z,970.70
2018-05-07T01:42:58.527Z,970.69
2018-05-07T01:43:58.575Z,970.71
2018-05-07T01:44:58.626Z,970.70
2018-05-07T01:45:58.676Z,970.71
2018-05-07T01:46:58.809Z,970.73
2018-05-07T01:47:58.776Z,970.69
2018-05-07T01:48:58.819Z,970.69
2018-05-07T01:49:58.868Z,970.71
2018-05-07T01:50:58.917Z,970.72
2018-05-07T01:51:58.990Z,970.74
2018-05-07T01:52:59.048Z,970.70
2018-05-07T01:53:59.065Z,970.68
2018-05-07T01:54:59.113Z,970.73
2018-05-07T01:55:59.161Z,970.73
2018-05-07T01:56:59.209Z,970.74
2018-05-07T01:57:59.294Z,970.71
2018-05-07T01:58:59.305Z,970.72
2018-05-07T01:59:59.356Z,970.72
2018-05-07T02:00:59.406Z,970.70
2018-05-07T02:01:59.451Z,970.70
2018-05-07T02:02:59.530Z,970.72
2018-05-07T02:03:59.549Z,970.71
2018-05-07T02:04:59.595Z,970.74
2018-05-07T02:05:59.644Z,970.73
2018-05-07T02:06:59.697Z,970.72
2018-05-07T02:07:59.779Z,970.81
2018-05-07T02:08:59.791Z,970.82
2018-05-07T02:09:59.838Z,970.80
2018-05-07T02:11:00.790Z,970.78
2018-05-07T02:11:59.935Z,970.78
2018-05-07T02:13:00.018Z,970.75
2018-05-07T02:14:00.040Z,970.73
2018-05-07T02:15:00.087Z,970.71
2018-05-07T02:16:00.131Z,970.70
2018-05-07T02:17:00.183Z,970.70
2018-05-07T02:18:00.249Z,970.70
2018-05-07T02:19:00.275Z,970.70
2018-05-07T02:20:00.323Z,970.75
2018-05-07T02:21:00.372Z,970.72
2018-05-07T02:22:00.423Z,970.70
2018-05-07T02:23:00.490Z,970.70
2018-05-07T02:24:00.516Z,970.67
2018-05-07T02:25:00.565Z,970.65
2018-05-07T02:26:00.638Z,970.70
2018-05-07T02:27:00.662Z,970.69
2018-05-07T02:28:00.710Z,970.65
2018-05-07T02:29:00.784Z,970.66
2018-05-07T02:30:00.805Z,970.63
2018-05-07T02:31:00.878Z,970.66
2018-05-07T02:32:00.910Z,970.66
2018-05-07T02:33:00.953Z,970.60
2018-05-07T02:34:01.011Z,970.63
2018-05-07T02:35:01.048Z,970.62
2018-05-07T02:36:01.127Z,970.62
2018-05-07T02:37:01.155Z,970.60
2018-05-07T02:38:01.196Z,970.62
2018-05-07T02:39:01.333Z,970.59
2018-05-07T02:40:01.290Z,970.60
2018-05-07T02:41:01.363Z,970.61
2018-05-07T02:42:01.385Z,970.63
2018-05-07T02:43:01.435Z,970.62
2018-05-07T02:44:01.487Z,970.63
2018-05-07T02:45:01.532Z,970.67
2018-05-07T02:46:01.610Z,970.63
2018-05-07T02:47:01.637Z,970.63
2018-05-07T02:48:01.675Z,970.65
2018-05-07T02:49:01.725Z,970.63
2018-05-07T02:50:01.770Z,970.60
2018-05-07T02:51:01.859Z,970.58
2018-05-07T02:52:01.868Z,970.61
2018-05-07T02:53:01.918Z,970.62
2018-05-07T02:54:01.964Z,970.60
2018-05-07T02:55:02.011Z,970.63
2018-05-07T02:56:02.586Z,970.64
2018-05-07T02:57:02.108Z,970.58
2018-05-07T02:58:02.155Z,970.63
2018-05-07T02:59:02.204Z,970.62
2018-05-07T03:00:02.255Z,970.57
2018-05-07T03:01:02.302Z,970.60
2018-05-07T03:02:02.379Z,970.61
2018-05-07T03:03:02.396Z,970.57
2018-05-07T03:04:02.449Z,970.55
2018-05-07T03:05:02.606Z,970.59
2018-05-07T03:06:02.546Z,970.55
2018-05-07T03:07:02.612Z,970.58
2018-05-07T03:08:02.635Z,970.55
2018-05-07T03:09:02.684Z,970.52
2018-05-07T03:10:02.736Z,970.52
2018-05-07T03:11:02.782Z,970.50
2018-05-07T03:12:02.885Z,970.52
2018-05-07T03:13:02.878Z,970.51
2018-05-07T03:14:02.924Z,970.50
2018-05-07T03:15:02.971Z,970.58
2018-05-07T03:16:03.019Z,970.53
2018-05-07T03:17:03.090Z,970.50
2018-05-07T03:18:03.144Z,970.56
2018-05-07T03:19:03.166Z,970.50
2018-05-07T03:20:03.213Z,970.57
2018-05-07T03:21:03.259Z,970.57
2018-05-07T03:22:03.307Z,970.57
2018-05-07T03:23:03.387Z,970.58
2018-05-07T03:24:03.404Z,970.56
2018-05-07T03:25:03.451Z,970.58
2018-05-07T03:26:03.497Z,970.57
2018-05-07T03:27:03.550Z,970.54
2018-05-07T03:28:03.641Z,970.56
2018-05-07T03:29:03.642Z,970.55
2018-05-07T03:30:03.695Z,970.54
2018-05-07T03:31:03.740Z,970.54
2018-05-07T03:32:03.787Z,970.55
2018-05-07T03:33:03.858Z,970.56
2018-05-07T03:34:03.907Z,970.57
2018-05-07T03:35:03.929Z,970.53
2018-05-07T03:36:03.977Z,970.55
2018-05-07T03:37:04.027Z,970.55
2018-05-07T03:38:04.072Z,970.60
2018-05-07T03:39:04.144Z,970.61
2018-05-07T03:40:04.171Z,970.59
2018-05-07T03:41:04.215Z,970.57
2018-05-07T03:42:04.268Z,970.56
2018-05-07T03:43:04.311Z,970.58
2018-05-07T03:44:04.385Z,970.57
2018-05-07T03:45:04.410Z,970.54
2018-05-07T03:46:04.453Z,970.57
2018-05-07T03:47:04.501Z,970.57
2018-05-07T03:48:04.549Z,970.61
2018-05-07T03:49:04.627Z,970.59
2018-05-07T03:50:04.678Z,970.61
2018-05-07T03:51:04.694Z,970.58
2018-05-07T03:52:04.742Z,970.55
2018-05-07T03:53:04.800Z,970.57
2018-05-07T03:54:04.837Z,970.56
2018-05-07T03:55:04.917Z,970.57
2018-05-07T03:56:04.932Z,970.56
2018-05-07T03:57:04.980Z,970.60
2018-05-07T03:58:05.030Z,970.54
2018-05-07T03:59:05.073Z,970.53
2018-05-07T04:00:05.162Z,970.54
2018-05-07T04:01:05.169Z,970.55
2018-05-07T04:02:05.215Z,970.55
2018-05-07T04:03:05.265Z,970.55
2018-05-07T04:04:05.313Z,970.53
2018-05-07T04:05:05.386Z,970.55
2018-05-07T04:06:05.407Z,970.56
2018-05-07T04:07:05.480Z,970.53
2018-05-07T04:08:05.508Z,970.53
2018-05-07T04:09:05.556Z,970.53
2018-05-07T04:10:05.596Z,970.54
2018-05-07T04:11:05.644Z,970.57
2018-05-07T04:12:05.720Z,970.57
2018-05-07T04:13:05.753Z,970.59
2018-05-07T04:14:05.787Z,970.59
2018-05-07T04:15:05.835Z,970.59
2018-05-07T04:16:05.882Z,970.61
2018-05-07T04:17:05.953Z,970.57
2018-05-07T04:18:05.978Z,970.58
2018-05-07T04:19:06.024Z,970.58
2018-05-07T04:20:06.073Z,970.59
2018-05-07T04:21:06.144Z,970.59
2018-05-07T04:22:06.166Z,970.57
2018-05-07T04:23:06.222Z,970.59
2018-05-07T04:24:06.265Z,970.62
2018-05-07T04:25:06.316Z,970.62
2018-05-07T04:26:06.385Z,970.61
2018-05-07T04:27:06.405Z,970.63
2018-05-07T04:28:06.478Z,970.61
2018-05-07T04:29:06.501Z,970.61
2018-05-07T04:30:06.548Z,970.61
2018-05-07T04:31:06.595Z,970.64
2018-05-07T04:32:06.643Z,970.61
2018-05-07T04:33:06.717Z,970.61
2018-05-07T04:34:06.761Z,970.58
2018-05-07T04:35:06.783Z,970.60
2018-05-07T04:36:06.832Z,970.59
2018-05-07T04:37:06.884Z,970.56
2018-05-07T04:38:06.932Z,970.57
2018-05-07T04:39:06.999Z,970.57
2018-05-07T04:40:07.021Z,970.58
2018-05-07T04:41:07.070Z,970.63
2018-05-07T04:42:07.115Z,970.64
2018-05-07T04:43:07.201Z,970.64
2018-05-07T04:44:07.212Z,970.67
2018-05-07T04:45:07.259Z,970.66
2018-05-07T04:46:07.305Z,970.67
2018-05-07T04:47:07.357Z,970.66
2018-05-07T04:48:07.426Z,970.71
2018-05-07T04:49:07.449Z,970.71
2018-05-07T04:50:07.495Z,970.72
2018-05-07T04:51:07.568Z,970.71
2018-05-07T04:52:07.590Z,970.76
2018-05-07T04:53:07.644Z,970.76
2018-05-07T04:54:07.717Z,970.73
2018-05-07T04:55:07.770Z,970.81
2018-05-07T04:56:07.780Z,970.80
2018-05-07T04:57:07.836Z,970.80
2018-05-07T04:58:07.877Z,970.80
2018-05-07T04:59:07.948Z,970.82
2018-05-07T05:00:07.985Z,970.77
2018-05-07T05:01:08.047Z,970.83
2018-05-07T05:02:08.065Z,970.86
2018-05-07T05:03:08.119Z,970.90
2018-05-07T05:04:08.160Z,970.85
2018-05-07T05:05:08.208Z,970.87
2018-05-07T05:06:08.294Z,970.88
2018-05-07T05:07:08.309Z,970.91
2018-05-07T05:08:08.356Z,970.93
2018-05-07T05:09:08.398Z,970.94
2018-05-07T05:10:08.452Z,970.98
2018-05-07T05:11:08.525Z,970.92
2018-05-07T05:12:08.542Z,970.94
2018-05-07T05:13:08.589Z,970.94
2018-05-07T05:14:08.637Z,970.94
2018-05-07T05:15:08.685Z,970.96
2018-05-07T05:16:08.758Z,970.95
2018-05-07T05:17:08.803Z,970.92
2018-05-07T05:18:08.827Z,970.91
2018-05-07T05:19:08.904Z,970.93
2018-05-07T05:20:08.926Z,970.94
2018-05-07T05:21:09.063Z,970.96
2018-05-07T05:22:09.043Z,970.96
2018-05-07T05:23:09.100Z,970.93
2018-05-07T05:24:09.113Z,970.89
2018-05-07T05:25:09.161Z,970.91
2018-05-07T05:26:09.208Z,970.90
2018-05-07T05:27:09.256Z,970.89
2018-05-07T05:28:09.331Z,970.91
2018-05-07T05:29:09.351Z,970.89
2018-05-07T05:30:09.403Z,970.90
2018-05-07T05:31:09.447Z,970.88
2018-05-07T05:32:09.496Z,970.91
2018-05-07T05:33:09.574Z,970.90
2018-05-07T05:34:09.595Z,970.92
2018-05-07T05:35:09.641Z,970.92
2018-05-07T05:36:09.692Z,970.92
2018-05-07T05:37:09.744Z,970.90
2018-05-07T05:38:09.860Z,970.96
2018-05-07T05:39:09.832Z,970.95
2018-05-07T05:40:09.881Z,970.92
2018-05-07T05:41:09.928Z,970.94
2018-05-07T05:42:09.982Z,970.92
2018-05-07T05:43:10.056Z,970.91
2018-05-07T05:44:10.092Z,970.92
2018-05-07T05:45:10.118Z,970.92
2018-05-07T05:46:10.166Z,970.93
2018-05-07T05:47:10.214Z,970.94
2018-05-07T05:48:10.293Z,970.94
2018-05-07T05:49:10.312Z,970.96
2018-05-07T05:50:10.420Z,970.98
2018-05-07T05:51:10.406Z,970.99
2018-05-07T05:52:10.457Z,970.99
2018-05-07T05:53:10.534Z,971.01
2018-05-07T05:54:10.553Z,971.03
2018-05-07T05:55:10.628Z,971.01
2018-05-07T05:56:10.667Z,971.03
2018-05-07T05:57:10.696Z,971.00
2018-05-07T05:58:10.749Z,971.03
2018-05-07T05:59:10.815Z,971.01
2018-05-07T06:00:10.876Z,971.04
2018-05-07T06:01:10.891Z,971.04
2018-05-07T06:02:10.937Z,971.07
2018-05-07T06:03:10.988Z,971.06
2018-05-07T06:04:11.036Z,971.06
2018-05-07T06:05:11.121Z,971.06
2018-05-07T06:06:11.130Z,971.08
2018-05-07T06:07:11.180Z,971.05
2018-05-07T06:08:11.230Z,971.06
2018-05-07T06:09:11.276Z,971.02
2018-05-07T06:10:11.863Z,971.09
2018-05-07T06:11:11.374Z,971.04
2018-05-07T06:12:11.421Z,971.06
2018-05-07T06:13:11.473Z,971.00
2018-05-07T06:14:11.520Z,971.05
2018-05-07T06:15:11.567Z,971.03
2018-05-07T06:16:11.637Z,971.01
2018-05-07T06:17:11.666Z,971.03
2018-05-07T06:18:11.712Z,971.00
2018-05-07T06:19:11.764Z,971.04
2018-05-07T06:20:11.810Z,970.97
2018-05-07T06:21:11.903Z,970.97
2018-05-07T06:22:11.912Z,970.98
2018-05-07T06:23:11.958Z,971.00
2018-05-07T06:24:12.012Z,971.04
2018-05-07T06:25:12.057Z,971.01
2018-05-07T06:26:12.139Z,971.06
2018-05-07T06:27:12.178Z,971.04
2018-05-07T06:28:12.204Z,971.03
2018-05-07T06:29:12.251Z,971.05
2018-05-07T06:30:12.296Z,971.09
2018-05-07T06:31:12.377Z,971.05
2018-05-07T06:32:12.426Z,971.05
2018-05-07T06:33:12.445Z,971.08
2018-05-07T06:34:12.496Z,971.06
2018-05-07T06:35:12.542Z,971.06
2018-05-07T06:36:12.591Z,971.07
2018-05-07T06:37:12.666Z,971.11
2018-05-07T06:38:12.689Z,971.06
2018-05-07T06:39:12.738Z,971.08
2018-05-07T06:40:12.791Z,971.12
2018-05-07T06:41:12.837Z,971.13
2018-05-07T06:42:12.910Z,971.13
2018-05-07T06:43:12.936Z,971.12
2018-05-07T06:44:12.989Z,971.15
2018-05-07T06:45:13.035Z,971.13
2018-05-07T06:46:13.090Z,971.17
2018-05-07T06:47:13.157Z,971.12
2018-05-07T06:48:13.206Z,971.14
2018-05-07T06:49:13.232Z,971.12
2018-05-07T06:50:13.282Z,971.13
2018-05-07T06:51:13.334Z,971.11
2018-05-07T06:52:13.399Z,971.12
2018-05-07T06:53:13.459Z,971.07
2018-05-07T06:54:13.483Z,971.12
2018-05-07T06:55:13.532Z,971.09
2018-05-07T06:56:13.586Z,971.13
2018-05-07T06:57:13.635Z,971.08
2018-05-07T06:58:13.707Z,971.07
2018-05-07T06:59:13.731Z,971.07
2018-05-07T07:00:13.786Z,971.09
2018-05-07T07:01:13.836Z,971.07
2018-05-07T07:02:13.910Z,971.11
2018-05-07T07:03:14.357Z,971.09
2018-05-07T07:04:14.008Z,971.11
2018-05-07T07:05:14.035Z,971.11
2018-05-07T07:06:14.084Z,971.05
2018-05-07T07:07:14.136Z,971.12
2018-05-07T07:08:14.235Z,971.09
2018-05-07T07:09:14.273Z,971.13
2018-05-07T07:10:14.287Z,971.12
2018-05-07T07:11:14.344Z,971.11
2018-05-07T07:12:14.390Z,971.13
2018-05-07T07:13:14.447Z,971.14
2018-05-07T07:14:14.531Z,971.14
2018-05-07T07:15:14.545Z,971.13
2018-05-07T07:16:14.598Z,971.11
2018-05-07T07:17:14.647Z,971.12
2018-05-07T07:18:14.695Z,971.12
2018-05-07T07:19:14.778Z,971.13
2018-05-07T07:20:14.798Z,971.14
2018-05-07T07:21:14.849Z,971.15
2018-05-07T07:22:14.900Z,971.15
2018-05-07T07:23:14.951Z,971.14
2018-05-07T07:24:15.023Z,971.17
2018-05-07T07:25:15.077Z,971.17
2018-05-07T07:26:15.106Z,971.16
2018-05-07T07:27:15.153Z,971.12
2018-05-07T07:28:15.225Z,971.19
2018-05-07T07:29:15.259Z,971.15
2018-05-07T07:30:15.354Z,971.16
2018-05-07T07:31:15.361Z,971.14
2018-05-07T07:32:15.412Z,971.18
2018-05-07T07:33:15.465Z,971.18
2018-05-07T07:34:15.509Z,971.12
2018-05-07T07:35:15.593Z,971.14
2018-05-07T07:36:15.618Z,971.11
2018-05-07T07:37:15.665Z,971.10
2018-05-07T07:38:15.715Z,971.12
2018-05-07T07:39:15.766Z,971.16
2018-05-07T07:40:15.842Z,971.11
2018-05-07T07:41:15.897Z,971.11
2018-05-07T07:42:15.923Z,971.12
2018-05-07T07:43:15.975Z,971.12
2018-05-07T07:44:16.027Z,971.10
2018-05-07T07:45:16.075Z,971.16
2018-05-07T07:46:16.165Z,971.14
2018-05-07T07:47:16.255Z,971.12
2018-05-07T07:48:16.833Z,971.11
2018-05-07T07:49:16.282Z,971.08
2018-05-07T07:50:16.329Z,971.13
2018-05-07T07:51:16.415Z,971.07
2018-05-07T07:52:16.435Z,971.08
2018-05-07T07:53:16.486Z,971.07
2018-05-07T07:54:16.545Z,971.07
2018-05-07T07:55:16.588Z,971.05
2018-05-07T07:56:16.668Z,971.04
2018-05-07T07:57:16.701Z,971.03
2018-05-07T07:58:16.744Z,971.04
2018-05-07T07:59:16.794Z,971.02
2018-05-07T08:00:16.848Z,971.04
2018-05-07T08:01:16.936Z,971.07
2018-05-07T08:02:16.949Z,971.07
2018-05-07T08:03:17.000Z,971.06
2018-05-07T08:04:17.876Z,971.03
2018-05-07T08:05:17.105Z,971.03
2018-05-07T08:06:17.188Z,970.98
2018-05-07T08:07:17.207Z,970.97
2018-05-07T08:08:17.259Z,971.01
2018-05-07T08:09:17.368Z,970.97
2018-05-07T08:10:17.361Z,970.96
2018-05-07T08:11:17.444Z,970.99
2018-05-07T08:12:17.562Z,970.97
2018-05-07T08:13:17.519Z,970.98
2018-05-07T08:14:17.581Z,970.99
2018-05-07T08:15:17.623Z,970.90
2018-05-07T08:16:17.711Z,970.94
2018-05-07T08:17:17.726Z,970.98
2018-05-07T08:18:17.778Z,970.94
2018-05-07T08:19:17.830Z,970.94
2018-05-07T08:20:17.883Z,970.94
2018-05-07T08:21:17.961Z,970.91
2018-05-07T08:22:17.985Z,970.93
2018-05-07T08:23:18.038Z,970.92
2018-05-07T08:24:18.088Z,970.94
2018-05-07T08:25:18.138Z,970.91
2018-05-07T08:26:18.214Z,970.95
2018-05-07T08:27:18.243Z,970.94
2018-05-07T08:28:18.294Z,970.94
2018-05-07T08:29:18.377Z,970.91
2018-05-07T08:30:18.397Z,970.89
2018-05-07T08:31:18.448Z,970.90
2018-05-07T08:32:18.500Z,970.92
2018-05-07T08:33:18.553Z,970.89
2018-05-07T08:34:18.631Z,970.90
2018-05-07T08:35:18.655Z,970.93
2018-05-07T08:36:18.707Z,970.90
2018-05-07T08:37:18.758Z,970.93
2018-05-07T08:38:18.833Z,970.92
2018-05-07T08:39:18.863Z,970.88
2018-05-07T08:40:18.912Z,970.86
2018-05-07T08:41:18.965Z,970.89
2018-05-07T08:42:19.032Z,970.92
2018-05-07T08:43:19.103Z,970.89
2018-05-07T08:44:19.121Z,970.90
2018-05-07T08:45:19.172Z,970.89
2018-05-07T08:46:19.224Z,970.92
2018-05-07T08:47:19.281Z,970.86
2018-05-07T08:48:19.367Z,970.88
2018-05-07T08:49:19.379Z,970.88
2018-05-07T08:50:19.431Z,970.88
2018-05-07T08:51:19.482Z,970.93
2018-05-07T08:52:19.534Z,970.87
2018-05-07T08:53:19.624Z,970.89
2018-05-07T08:54:19.637Z,970.91
2018-05-07T08:55:19.690Z,970.88
2018-05-07T08:56:19.741Z,970.91
2018-05-07T08:57:19.797Z,970.86
2018-05-07T08:58:19.876Z,970.86
2018-05-07T08:59:19.896Z,970.81
2018-05-07T09:00:19.950Z,970.74
2018-05-07T09:01:20.029Z,970.80
2018-05-07T09:02:20.055Z,970.78
2018-05-07T09:03:20.127Z,970.79
2018-05-07T09:04:20.160Z,970.80
2018-05-07T09:05:20.213Z,970.79
2018-05-07T09:06:20.259Z,970.76
2018-05-07T09:07:20.310Z,970.80
2018-05-07T09:08:20.393Z,970.80
2018-05-07T09:09:20.440Z,970.82
2018-05-07T09:10:20.465Z,970.82
2018-05-07T09:11:20.521Z,970.88
2018-05-07T09:12:20.570Z,970.80
2018-05-07T09:13:20.622Z,970.84
2018-05-07T09:14:20.699Z,970.81
2018-05-07T09:15:20.729Z,970.79
2018-05-07T09:16:20.784Z,970.78
2018-05-07T09:17:20.833Z,970.74
2018-05-07T09:18:20.883Z,970.76
2018-05-07T09:19:20.968Z,970.73
2018-05-07T09:20:20.988Z,970.74
2018-05-07T09:21:21.043Z,970.75
2018-05-07T09:22:21.091Z,970.72
2018-05-07T09:23:21.146Z,970.71
2018-05-07T09:24:21.220Z,970.69
2018-05-07T09:25:21.271Z,970.70
2018-05-07T09:26:21.314Z,970.67
2018-05-07T09:27:21.353Z,970.64
2018-05-07T09:28:21.407Z,970.65
2018-05-07T09:29:21.468Z,970.66
2018-05-07T09:30:21.541Z,970.66
2018-05-07T09:31:21.568Z,970.68
2018-05-07T09:32:21.615Z,970.67
2018-05-07T09:33:21.676Z,970.64
2018-05-07T09:34:21.723Z,970.66
2018-05-07T09:35:21.812Z,970.67
2018-05-07T09:36:21.829Z,970.69
2018-05-07T09:37:21.885Z,970.68
2018-05-07T09:38:21.934Z,970.65
2018-05-07T09:39:21.986Z,970.65
2018-05-07T09:40:22.065Z,970.64
2018-05-07T09:41:22.118Z,970.56
2018-05-07T09:42:22.146Z,970.54
2018-05-07T09:43:22.197Z,970.58
2018-05-07T09:44:22.251Z,970.56
2018-05-07T09:45:22.308Z,970.56
2018-05-07T09:46:22.381Z,970.51
2018-05-07T09:47:22.411Z,970.51
2018-05-07T09:48:22.548Z,970.48
2018-05-07T09:49:22.525Z,970.45
2018-05-07T09:50:22.570Z,970.46
2018-05-07T09:51:22.650Z,970.43
2018-05-07T09:52:22.703Z,970.38
2018-05-07T09:53:22.732Z,970.39
2018-05-07T09:54:22.786Z,970.40
2018-05-07T09:55:22.838Z,970.40
2018-05-07T09:56:22.900Z,970.37
2018-05-07T09:57:22.968Z,970.38
2018-05-07T09:58:22.996Z,970.29
2018-05-07T09:59:23.051Z,970.27
2018-05-07T10:00:23.102Z,970.30
2018-05-07T10:01:23.160Z,970.24
2018-05-07T10:02:23.273Z,970.22
2018-05-07T10:03:23.261Z,970.26
2018-05-07T10:04:23.313Z,970.23
2018-05-07T10:05:23.367Z,970.21
2018-05-07T10:06:23.418Z,970.20
2018-05-07T10:07:23.495Z,970.25
2018-05-07T10:08:23.552Z,970.20
2018-05-07T10:09:23.574Z,970.21
2018-05-07T10:10:23.628Z,970.19
2018-05-07T10:11:23.682Z,970.19
2018-05-07T10:12:23.732Z,970.17
2018-05-07T10:13:23.810Z,970.15
2018-05-07T10:14:23.839Z,970.19
2018-05-07T10:15:23.892Z,970.17
2018-05-07T10:16:23.946Z,970.17
2018-05-07T10:17:24.002Z,970.25
2018-05-07T10:18:24.103Z,970.21
2018-05-07T10:19:24.130Z,970.21
2018-05-07T10:20:24.154Z,970.22
2018-05-07T10:21:24.209Z,970.25
2018-05-07T10:22:26.090Z,970.24
2018-05-07T10:23:24.316Z,970.25
2018-05-07T10:24:25.089Z,970.23
2018-05-07T10:25:24.428Z,970.16
2018-05-07T10:26:24.473Z,970.18
2018-05-07T10:27:24.525Z,970.18
2018-05-07T10:28:24.588Z,970.17
2018-05-07T10:29:24.665Z,970.16
2018-05-07T10:30:24.693Z,970.15
2018-05-07T10:31:24.741Z,970.19
2018-05-07T10:32:24.796Z,970.15
2018-05-07T10:33:24.846Z,970.13
2018-05-07T10:34:24.930Z,970.09
2018-05-07T10:35:24.990Z,970.11
2018-05-07T10:36:25.008Z,970.13
2018-05-07T10:37:25.073Z,970.09
2018-05-07T10:38:25.121Z,970.06
2018-05-07T10:39:25.207Z,970.05
2018-05-07T10:40:25.226Z,970.05
2018-05-07T10:41:25.283Z,970.06
2018-05-07T10:42:25.334Z,970.04
2018-05-07T10:43:25.393Z,970.03
2018-05-07T10:44:25.467Z,969.98
2018-05-07T10:45:25.497Z,969.92
2018-05-07T10:46:25.573Z,969.92
2018-05-07T10:47:25.604Z,969.91
2018-05-07T10:48:25.664Z,969.93
2018-05-07T10:49:25.712Z,969.90
2018-05-07T10:50:25.791Z,969.86
2018-05-07T10:51:25.843Z,969.84
2018-05-07T10:52:25.874Z,969.80
2018-05-07T10:53:25.927Z,969.85
2018-05-07T10:54:25.987Z,969.81
2018-05-07T10:55:26.059Z,969.82
2018-05-07T10:56:26.115Z,969.80
2018-05-07T10:57:26.145Z,969.83
2018-05-07T10:58:26.200Z,969.83
2018-05-07T10:59:26.258Z,969.82
2018-05-07T11:00:26.309Z,969.79
2018-05-07T11:01:26.387Z,969.77
2018-05-07T11:02:26.422Z,969.77
2018-05-07T11:03:26.472Z,969.78
2018-05-07T11:04:26.527Z,969.67
2018-05-07T11:05:26.581Z,969.68
2018-05-07T11:06:26.943Z,969.72
2018-05-07T11:07:26.723Z,969.67
2018-05-07T11:08:26.747Z,969.69
2018-05-07T11:09:26.807Z,969.66
2018-05-07T11:10:26.855Z,969.67
2018-05-07T11:11:26.911Z,969.65
2018-05-07T11:12:26.996Z,969.61
2018-05-07T11:13:27.024Z,969.60
2018-05-07T11:14:27.081Z,969.58
2018-05-07T11:15:27.144Z,969.59
2018-05-07T11:16:27.190Z,969.57
2018-05-07T11:17:27.296Z,969.56
2018-05-07T11:18:27.302Z,969.52
2018-05-07T11:19:27.357Z,969.49
2018-05-07T11:20:27.415Z,969.49
2018-05-07T11:21:27.474Z,969.48
2018-05-07T11:22:27.567Z,969.51
2018-05-07T11:23:27.584Z,969.45
2018-05-07T11:24:27.643Z,969.45
2018-05-07T11:25:27.700Z,969.44
2018-05-07T11:26:27.758Z,969.44
2018-05-07T11:27:27.855Z,969.43
2018-05-07T11:28:27.869Z,969.39
2018-05-07T11:29:27.930Z,969.35
2018-05-07T11:30:27.984Z,969.34
2018-05-07T11:31:28.048Z,969.37
2018-05-07T11:32:28.128Z,969.33
2018-05-07T11:33:28.156Z,969.29
2018-05-07T11:34:28.240Z,969.27
2018-05-07T11:35:28.269Z,969.24
2018-05-07T11:36:28.327Z,969.23
2018-05-07T11:37:28.384Z,969.22
2018-05-07T11:38:28.442Z,969.19
2018-05-07T11:39:28.518Z,969.19
2018-05-07T11:40:28.555Z,969.24
2018-05-07T11:41:28.609Z,969.15
2018-05-07T11:42:28.670Z,969.21
2018-05-07T11:43:28.724Z,969.15
2018-05-07T11:44:28.803Z,969.15
2018-05-07T11:45:28.837Z,969.19
2018-05-07T11:46:28.892Z,969.17
2018-05-07T11:47:29.045Z,969.19
2018-05-07T11:48:29.006Z,969.13
2018-05-07T11:49:29.095Z,969.13
2018-05-07T11:50:29.125Z,969.13
2018-05-07T11:51:29.181Z,969.12
2018-05-07T11:52:29.234Z,969.10
2018-05-07T11:53:29.291Z,969.12
2018-05-07T11:54:29.374Z,969.15
2018-05-07T11:55:29.405Z,969.10
2018-05-07T11:56:29.465Z,969.11
2018-05-07T11:57:29.522Z,969.10
2018-05-07T11:58:29.579Z,969.10
2018-05-07T11:59:29.666Z,969.09
2018-05-07T12:00:29.696Z,969.06
2018-05-07T12:01:29.753Z,969.08
2018-05-07T12:02:29.843Z,969.06
2018-05-07T12:03:29.870Z,969.09
2018-05-07T12:04:29.969Z,969.14
2018-05-07T12:05:29.987Z,969.11
2018-05-07T12:06:30.042Z,969.13
2018-05-07T12:07:30.103Z,969.13
2018-05-07T12:08:30.160Z,969.09
2018-05-07T12:09:30.251Z,969.08
2018-05-07T12:10:30.276Z,969.05
2018-05-07T12:11:30.331Z,969.03
2018-05-07T12:12:30.389Z,969.03
2018-05-07T12:13:30.445Z,968.96
2018-05-07T12:14:30.531Z,968.97
2018-05-07T12:15:30.561Z,968.95
2018-05-07T12:16:30.621Z,968.98
2018-05-07T12:17:30.679Z,968.93
2018-05-07T12:18:30.740Z,968.95
2018-05-07T12:19:30.824Z,968.91
2018-05-07T12:20:30.851Z,968.87
2018-05-07T12:21:30.906Z,968.88
2018-05-07T12:22:30.958Z,968.90
2018-05-07T12:23:31.019Z,968.92
2018-05-07T12:24:31.099Z,968.82
2018-05-07T12:25:31.134Z,968.85
2018-05-07T12:26:31.216Z,968.86
2018-05-07T12:27:31.250Z,968.84
2018-05-07T12:28:31.319Z,968.77
2018-05-07T12:29:31.377Z,968.78